sensor_id;sensor_type;location;lat;lon;timestamp;temperature;humidity
21883;DHT22;11106;47.864;13.054;2023-07-22T00:01:57;16.60;99.90
21883;DHT22;11106;47.864;13.054;2023-07-22T00:06:57;16.70;99.90
21883;DHT22;11106;47.864;13.054;2023-07-22T00:11:58;16.70;99.90
21883;DHT22;11106;47.864;13.054;2023-07-22T00:16:58;16.80;99.90
21883;DHT22;11106;47.864;13.054;2023-07-22T00:21:59;16.80;99.90
21883;DHT22;11106;47.864;13.054;2023-07-22T00:27:00;16.80;99.90
21883;DHT22;11106;47.864;13.054;2023-07-22T00:32:00;16.80;99.90
21883;DHT22;11106;47.864;13.054;2023-07-22T00:37:01;16.90;99.90
21883;DHT22;11106;47.864;13.054;2023-07-22T00:42:02;16.80;99.90
21883;DHT22;11106;47.864;13.054;2023-07-22T00:47:02;16.80;99.90
21883;DHT22;11106;47.864;13.054;2023-07-22T00:52:04;16.80;99.90
21883;DHT22;11106;47.864;13.054;2023-07-22T00:57:06;16.80;99.90
21883;DHT22;11106;47.864;13.054;2023-07-22T01:02:07;16.90;99.90
21883;DHT22;11106;47.864;13.054;2023-07-22T01:07:07;16.80;99.90
21883;DHT22;11106;47.864;13.054;2023-07-22T01:12:11;16.80;99.90
21883;DHT22;11106;47.864;13.054;2023-07-22T01:17:12;16.80;99.90
21883;DHT22;11106;47.864;13.054;2023-07-22T01:22:13;16.80;99.90
21883;DHT22;11106;47.864;13.054;2023-07-22T01:27:14;16.70;99.90
21883;DHT22;11106;47.864;13.054;2023-07-22T01:32:15;16.80;99.90
21883;DHT22;11106;47.864;13.054;2023-07-22T01:37:15;16.80;99.90
21883;DHT22;11106;47.864;13.054;2023-07-22T01:42:16;16.80;99.90
21883;DHT22;11106;47.864;13.054;2023-07-22T01:47:16;16.80;99.90
21883;DHT22;11106;47.864;13.054;2023-07-22T01:52:17;16.80;99.90
21883;DHT22;11106;47.864;13.054;2023-07-22T01:57:17;16.80;99.90
21883;DHT22;11106;47.864;13.054;2023-07-22T02:02:18;16.80;99.90
21883;DHT22;11106;47.864;13.054;2023-07-22T02:07:19;16.80;99.90
21883;DHT22;11106;47.864;13.054;2023-07-22T02:12:20;16.80;99.90
21883;DHT22;11106;47.864;13.054;2023-07-22T02:17:20;16.80;99.90
21883;DHT22;11106;47.864;13.054;2023-07-22T02:22:21;16.80;99.90
21883;DHT22;11106;47.864;13.054;2023-07-22T02:27:22;16.80;99.90
21883;DHT22;11106;47.864;13.054;2023-07-22T02:32:22;16.80;99.90
21883;DHT22;11106;47.864;13.054;2023-07-22T02:37:23;16.70;99.90
21883;DHT22;11106;47.864;13.054;2023-07-22T02:42:23;16.70;99.90
21883;DHT22;11106;47.864;13.054;2023-07-22T02:47:24;16.70;99.90
21883;DHT22;11106;47.864;13.054;2023-07-22T02:52:24;16.70;99.90
21883;DHT22;11106;47.864;13.054;2023-07-22T02:57:26;16.60;99.90
21883;DHT22;11106;47.864;13.054;2023-07-22T03:02:26;16.60;99.90
21883;DHT22;11106;47.864;13.054;2023-07-22T03:07:27;16.60;99.90
21883;DHT22;11106;47.864;13.054;2023-07-22T03:12:27;16.50;99.90
21883;DHT22;11106;47.864;13.054;2023-07-22T03:17:28;16.60;99.90
21883;DHT22;11106;47.864;13.054;2023-07-22T03:22:30;16.60;99.90
21883;DHT22;11106;47.864;13.054;2023-07-22T03:27:31;16.60;99.90
21883;DHT22;11106;47.864;13.054;2023-07-22T03:32:32;16.60;99.90
21883;DHT22;11106;47.864;13.054;2023-07-22T03:37:32;16.60;99.90
21883;DHT22;11106;47.864;13.054;2023-07-22T03:42:33;16.50;99.90
21883;DHT22;11106;47.864;13.054;2023-07-22T03:47:34;16.40;99.90
21883;DHT22;11106;47.864;13.054;2023-07-22T03:52:35;16.30;99.90
21883;DHT22;11106;47.864;13.054;2023-07-22T03:57:35;16.30;99.90
21883;DHT22;11106;47.864;13.054;2023-07-22T04:02:36;16.30;99.90
21883;DHT22;11106;47.864;13.054;2023-07-22T04:07:37;16.40;99.90
21883;DHT22;11106;47.864;13.054;2023-07-22T04:12:37;16.40;99.90
21883;DHT22;11106;47.864;13.054;2023-07-22T04:17:38;16.40;99.90
21883;DHT22;11106;47.864;13.054;2023-07-22T04:22:39;16.40;99.90
21883;DHT22;11106;47.864;13.054;2023-07-22T04:27:40;16.40;99.90
21883;DHT22;11106;47.864;13.054;2023-07-22T04:32:40;16.40;99.90
21883;DHT22;11106;47.864;13.054;2023-07-22T04:37:43;16.40;99.90
21883;DHT22;11106;47.864;13.054;2023-07-22T04:42:44;16.50;99.90
21883;DHT22;11106;47.864;13.054;2023-07-22T04:47:46;16.40;99.90
21883;DHT22;11106;47.864;13.054;2023-07-22T04:52:49;16.50;99.90
21883;DHT22;11106;47.864;13.054;2023-07-22T04:57:49;16.60;99.90
21883;DHT22;11106;47.864;13.054;2023-07-22T05:02:51;16.70;99.90
21883;DHT22;11106;47.864;13.054;2023-07-22T05:32:58;16.80;99.90
21883;DHT22;11106;47.864;13.054;2023-07-22T05:37:58;19.80;99.90
21883;DHT22;11106;47.864;13.054;2023-07-22T05:42:59;19.30;99.90
21883;DHT22;11106;47.864;13.054;2023-07-22T05:47:59;18.80;99.90
21883;DHT22;11106;47.864;13.054;2023-07-22T05:53:00;18.90;99.90
21883;DHT22;11106;47.864;13.054;2023-07-22T05:58:02;19.50;99.90
21883;DHT22;11106;47.864;13.054;2023-07-22T06:03:05;19.50;99.90
21883;DHT22;11106;47.864;13.054;2023-07-22T06:08:06;19.10;99.90
21883;DHT22;11106;47.864;13.054;2023-07-22T06:13:07;19.40;99.90
21883;DHT22;11106;47.864;13.054;2023-07-22T06:18:07;19.80;99.90
21883;DHT22;11106;47.864;13.054;2023-07-22T06:23:09;19.80;99.90
21883;DHT22;11106;47.864;13.054;2023-07-22T06:28:09;20.00;99.90
21883;DHT22;11106;47.864;13.054;2023-07-22T06:33:10;20.10;99.90
21883;DHT22;11106;47.864;13.054;2023-07-22T06:38:10;20.40;99.90
21883;DHT22;11106;47.864;13.054;2023-07-22T06:43:11;20.40;99.90
21883;DHT22;11106;47.864;13.054;2023-07-22T06:48:11;20.40;99.90
21883;DHT22;11106;47.864;13.054;2023-07-22T06:53:12;20.30;99.90
21883;DHT22;11106;47.864;13.054;2023-07-22T06:58:15;20.30;99.90
21883;DHT22;11106;47.864;13.054;2023-07-22T07:03:15;20.20;99.90
21883;DHT22;11106;47.864;13.054;2023-07-22T07:08:16;20.00;99.90
21883;DHT22;11106;47.864;13.054;2023-07-22T07:13:16;20.10;99.90
21883;DHT22;11106;47.864;13.054;2023-07-22T07:18:17;20.40;99.90
21883;DHT22;11106;47.864;13.054;2023-07-22T07:23:18;20.50;99.90
21883;DHT22;11106;47.864;13.054;2023-07-22T07:28:19;20.90;99.90
21883;DHT22;11106;47.864;13.054;2023-07-22T07:33:19;21.50;99.90
21883;DHT22;11106;47.864;13.054;2023-07-22T07:38:20;21.20;99.90
21883;DHT22;11106;47.864;13.054;2023-07-22T07:43:20;21.10;99.90
21883;DHT22;11106;47.864;13.054;2023-07-22T07:48:21;21.40;99.90
21883;DHT22;11106;47.864;13.054;2023-07-22T07:53:22;21.50;99.70
21883;DHT22;11106;47.864;13.054;2023-07-22T07:58:22;21.50;99.90
21883;DHT22;11106;47.864;13.054;2023-07-22T08:03:23;21.70;99.90
21883;DHT22;11106;47.864;13.054;2023-07-22T08:08:23;22.30;99.90
21883;DHT22;11106;47.864;13.054;2023-07-22T08:13:24;22.60;98.20
21883;DHT22;11106;47.864;13.054;2023-07-22T08:18:25;22.90;99.70
21883;DHT22;11106;47.864;13.054;2023-07-22T08:23:25;23.10;97.60
21883;DHT22;11106;47.864;13.054;2023-07-22T10:13:50;24.90;93.50
21883;DHT22;11106;47.864;13.054;2023-07-22T10:18:51;25.50;92.70
21883;DHT22;11106;47.864;13.054;2023-07-22T10:23:53;25.20;92.20
21883;DHT22;11106;47.864;13.054;2023-07-22T10:28:54;25.40;90.90
21883;DHT22;11106;47.864;13.054;2023-07-22T10:33:55;25.00;93.50
21883;DHT22;11106;47.864;13.054;2023-07-22T10:38:57;24.60;91.80
21883;DHT22;11106;47.864;13.054;2023-07-22T10:43:58;24.50;93.60
21883;DHT22;11106;47.864;13.054;2023-07-22T10:49:06;25.00;94.20
21883;DHT22;11106;47.864;13.054;2023-07-22T10:59:09;25.00;91.30
21883;DHT22;11106;47.864;13.054;2023-07-22T12:24:30;25.60;91.70
21883;DHT22;11106;47.864;13.054;2023-07-22T12:29:31;24.80;91.90
21883;DHT22;11106;47.864;13.054;2023-07-22T13:09:39;24.90;90.50
21883;DHT22;11106;47.864;13.054;2023-07-22T13:14:40;24.90;91.20
21883;DHT22;11106;47.864;13.054;2023-07-22T19:41:05;23.00;95.60
21883;DHT22;11106;47.864;13.054;2023-07-22T19:46:07;19.50;99.90
21883;DHT22;11106;47.864;13.054;2023-07-22T19:51:09;19.30;99.90
21883;DHT22;11106;47.864;13.054;2023-07-22T19:56:10;19.20;99.90
21883;DHT22;11106;47.864;13.054;2023-07-22T20:01:10;19.20;99.90
21883;DHT22;11106;47.864;13.054;2023-07-22T20:06:11;19.10;99.90
21883;DHT22;11106;47.864;13.054;2023-07-22T20:11:12;19.00;99.90
21883;DHT22;11106;47.864;13.054;2023-07-22T20:51:20;19.00;99.90
21883;DHT22;11106;47.864;13.054;2023-07-22T20:56:21;18.30;99.90
21883;DHT22;11106;47.864;13.054;2023-07-22T21:01:23;18.20;99.90
21883;DHT22;11106;47.864;13.054;2023-07-22T23:46:55;18.20;99.90
21883;DHT22;11106;47.864;13.054;2023-07-22T23:51:56;16.80;99.90
21883;DHT22;11106;47.864;13.054;2023-07-22T23:56:56;16.70;99.90
